Terminal Aerodrome Forecast
Issued by NWS

Home | Current Version | Previous Version | Text Only | Print | Product List | Glossary On
Versions: 1 2 3 4 5 6 7 8 9 10 11 12 13 14 15 16 17 18 19 20
000
FTUS43 KSGF 221611 AAA
TAFJLN
TAF AMD
KJLN 221611Z 2216/2312 23018G32KT P6SM OVC030
     FM221800 23022G32KT P6SM VCSH OVC025
     FM230000 27021G31KT P6SM OVC025
     FM231100 29009KT P6SM FEW200=

USA.gov is the U.S. government's official web portal to all federal, state and local government web resources and services.